Time;durP1;ratioP1;P1;durP2;ratioP2;P2;SDS_P1;SDS_P2;PMS_P1;PMS_P2;Temp;Humidity;BMP_temperature;BMP_pressure;BME280_temperature;BME280_humidity;BME280_pressure;Samples;Min_cycle;Max_cycle;Signal;HPM_P1;HPM_P2
2021/10/14 00:01:02;;;;;;;1999.90;999.90;;;;;;;7.82;100.00;95904.56;5063301;28;20221;-68
2021/10/14 00:03:30;;;;;;;1999.90;999.90;;;;;;;7.76;100.00;95901.22;5063086;28;20688;-69
2021/10/14 00:05:58;;;;;;;1999.90;999.90;;;;;;;7.69;100.00;95908.50;5063040;28;20288;-69
2021/10/14 00:08:26;;;;;;;1999.90;999.90;;;;;;;7.62;100.00;95910.59;5063203;28;20196;-69
2021/10/14 00:10:53;;;;;;;1999.90;999.90;;;;;;;7.60;100.00;95903.09;5063269;27;20584;-69
2021/10/14 00:13:20;;;;;;;1999.90;999.90;;;;;;;7.66;100.00;95909.81;5063428;28;20204;-69
2021/10/14 00:15:48;;;;;;;1999.90;999.90;;;;;;;7.70;100.00;95903.06;5062948;28;20664;-69
2021/10/14 00:18:15;;;;;;;1999.90;999.90;;;;;;;7.72;100.00;95900.97;5063088;28;20279;-69
2021/10/14 00:20:42;;;;;;;1999.90;999.90;;;;;;;7.75;100.00;95895.28;5062933;28;20229;-69
2021/10/14 00:23:11;;;;;;;1999.90;999.90;;;;;;;7.82;100.00;95896.81;5062934;28;20200;-69
2021/10/14 00:25:39;;;;;;;1999.90;999.90;;;;;;;7.83;100.00;95900.94;5062801;28;20296;-69
2021/10/14 00:28:06;;;;;;;1999.90;999.90;;;;;;;7.81;100.00;95908.19;5062991;28;20196;-69
2021/10/14 00:30:34;;;;;;;1999.90;999.90;;;;;;;7.79;100.00;95911.81;5059802;28;20233;-69
2021/10/14 00:33:01;;;;;;;1999.90;999.90;;;;;;;7.80;100.00;95912.59;5049641;28;20205;-69
2021/10/14 00:35:28;;;;;;;1999.90;999.90;;;;;;;7.77;100.00;95903.53;5049430;28;20193;-69
2021/10/14 00:37:55;;;;;;;1999.90;999.90;;;;;;;7.83;100.00;95909.47;5049233;28;20201;-69
2021/10/14 00:40:24;;;;;;;1999.90;999.90;;;;;;;7.81;100.00;95903.81;5049166;28;20256;-69
2021/10/14 00:42:52;;;;;;;1999.90;999.90;;;;;;;7.86;100.00;95905.59;5049196;28;20273;-69
2021/10/14 00:45:19;;;;;;;1999.90;999.90;;;;;;;7.85;100.00;95904.03;5049332;28;20254;-69
2021/10/14 00:47:46;;;;;;;1999.90;999.90;;;;;;;7.95;100.00;95898.81;5049332;28;20193;-68
2021/10/14 00:50:14;;;;;;;1999.90;999.90;;;;;;;7.89;100.00;95905.06;5049046;28;20194;-69
2021/10/14 00:52:43;;;;;;;1999.90;999.90;;;;;;;7.94;100.00;95903.22;5049018;28;20292;-69
2021/10/14 00:55:13;;;;;;;1999.90;999.90;;;;;;;7.96;100.00;95900.38;5049112;28;20197;-68
2021/10/14 00:57:42;;;;;;;1999.90;999.90;;;;;;;7.92;100.00;95901.94;5049250;28;20194;-68
2021/10/14 01:00:10;;;;;;;1999.90;999.90;;;;;;;7.96;100.00;95893.38;5049195;28;20221;-69
2021/10/14 01:02:37;;;;;;;1999.90;999.90;;;;;;;7.96;100.00;95895.19;5048878;28;20204;-69
2021/10/14 01:05:06;;;;;;;1999.90;999.90;;;;;;;7.96;100.00;95898.56;5048811;28;20202;-69
2021/10/14 01:07:33;;;;;;;1999.90;999.90;;;;;;;7.98;100.00;95903.44;5049191;28;20213;-69
2021/10/14 01:10:00;;;;;;;1999.90;999.90;;;;;;;7.98;100.00;95911.22;5049085;28;20197;-69
2021/10/14 01:12:28;;;;;;;1999.90;999.90;;;;;;;7.97;100.00;95914.88;5048731;28;20201;-68
2021/10/14 01:14:57;;;;;;;1999.90;999.90;;;;;;;8.00;100.00;95906.56;5048844;28;20212;-69
2021/10/14 01:17:24;;;;;;;1999.90;999.90;;;;;;;8.15;100.00;95909.06;5049027;28;20205;-69
2021/10/14 01:19:52;;;;;;;1999.90;999.90;;;;;;;8.14;100.00;95910.88;5048602;28;20312;-69
2021/10/14 01:22:19;;;;;;;1999.90;999.90;;;;;;;8.09;100.00;95916.09;5048543;28;20197;-69
2021/10/14 01:24:47;;;;;;;1999.90;999.90;;;;;;;7.98;100.00;95918.97;5048995;28;20631;-69
2021/10/14 01:27:15;;;;;;;1999.90;999.90;;;;;;;8.01;100.00;95910.69;5048510;28;20205;-69
2021/10/14 01:29:42;;;;;;;1999.90;999.90;;;;;;;7.97;100.00;95913.03;5048558;28;20655;-69
2021/10/14 01:32:09;;;;;;;1999.90;999.90;;;;;;;8.00;100.00;95907.34;5048450;28;20800;-69
2021/10/14 01:34:36;;;;;;;1999.90;999.90;;;;;;;8.09;100.00;95907.53;5047894;28;20740;-68
2021/10/14 01:37:05;;;;;;;1999.90;999.90;;;;;;;8.10;100.00;95901.34;5048484;28;20204;-69
2021/10/14 01:39:32;;;;;;;1999.90;999.90;;;;;;;8.11;100.00;95905.47;5048644;28;20224;-69
2021/10/14 01:41:59;;;;;;;1999.90;999.90;;;;;;;8.08;100.00;95900.81;5048291;28;20266;-69
2021/10/14 01:44:26;;;;;;;1999.90;999.90;;;;;;;8.07;100.00;95897.44;5048027;28;20197;-69
2021/10/14 01:46:53;;;;;;;1999.90;999.90;;;;;;;8.05;100.00;95898.78;5048179;28;20193;-68
2021/10/14 01:49:20;;;;;;;1999.90;999.90;;;;;;;8.02;100.00;95904.50;5048520;28;20632;-68
2021/10/14 01:51:47;;;;;;;1999.90;999.90;;;;;;;8.08;100.00;95906.75;5048078;28;20200;-69
2021/10/14 01:54:17;;;;;;;1999.90;999.90;;;;;;;8.08;100.00;95904.19;5048188;28;20577;-68
2021/10/14 01:56:44;;;;;;;1999.90;999.90;;;;;;;8.08;100.00;95908.56;5048335;28;20207;-69
2021/10/14 01:59:11;;;;;;;1999.90;999.90;;;;;;;8.02;100.00;95902.66;5048084;28;20201;-69
2021/10/14 02:01:38;;;;;;;1999.90;999.90;;;;;;;8.02;100.00;95907.06;5047867;28;20217;-69
2021/10/14 02:04:05;;;;;;;1999.90;999.90;;;;;;;7.95;100.00;95919.53;5047995;28;20201;-69
2021/10/14 02:06:32;;;;;;;1999.90;999.90;;;;;;;8.00;100.00;95922.09;5047854;28;20193;-69
2021/10/14 02:08:59;;;;;;;1999.90;999.90;;;;;;;8.06;100.00;95916.63;5048125;28;20202;-69
2021/10/14 02:11:28;;;;;;;1999.90;999.90;;;;;;;8.05;100.00;95917.66;5048085;28;20193;-69
2021/10/14 02:13:56;;;;;;;1999.90;999.90;;;;;;;8.09;100.00;95913.50;5048122;28;20608;-69
2021/10/14 02:16:24;;;;;;;1999.90;999.90;;;;;;;8.10;100.00;95925.41;5047897;28;20201;-69
2021/10/14 02:18:51;;;;;;;1999.90;999.90;;;;;;;8.10;100.00;95922.81;5047697;28;20678;-69
2021/10/14 02:21:18;;;;;;;1999.90;999.90;;;;;;;7.95;100.00;95919.53;5047832;28;20269;-69
2021/10/14 02:23:45;;;;;;;1999.90;999.90;;;;;;;7.97;100.00;95931.13;5047703;28;20205;-69
2021/10/14 02:26:13;;;;;;;1999.90;999.90;;;;;;;7.92;100.00;95931.16;5047959;28;20197;-69
2021/10/14 02:28:41;;;;;;;1999.90;999.90;;;;;;;7.97;100.00;95928.56;5047560;28;20211;-69
2021/10/14 02:31:08;;;;;;;1999.90;999.90;;;;;;;8.11;100.00;95933.94;5047566;28;20229;-69
2021/10/14 02:33:35;;;;;;;1999.90;999.90;;;;;;;8.06;100.00;95939.16;5047670;28;20660;-69
2021/10/14 02:36:03;;;;;;;1999.90;999.90;;;;;;;8.04;100.00;95934.22;5047506;28;20204;-68
2021/10/14 02:38:30;;;;;;;1999.90;999.90;;;;;;;8.01;100.00;95939.16;5047340;28;20197;-69
2021/10/14 02:40:57;;;;;;;1999.90;999.90;;;;;;;7.96;100.00;95932.19;5047311;28;20229;-69
2021/10/14 02:43:24;;;;;;;1999.90;999.90;;;;;;;7.93;100.00;95939.69;5047390;28;20193;-69
2021/10/14 02:45:53;;;;;;;1999.90;999.90;;;;;;;7.93;100.00;95937.88;5047439;28;20576;-69
2021/10/14 02:48:20;;;;;;;1999.90;999.90;;;;;;;7.93;100.00;95950.06;5047183;28;20189;-68
2021/10/14 02:50:47;;;;;;;1999.90;999.90;;;;;;;7.92;100.00;95946.69;5047254;28;20189;-69
2021/10/14 02:53:14;;;;;;;1999.90;999.90;;;;;;;7.92;100.00;95951.09;5047477;28;20189;-69
2021/10/14 02:55:41;;;;;;;1999.90;999.90;;;;;;;7.93;100.00;95948.25;5046799;28;20669;-69
2021/10/14 02:58:08;;;;;;;1999.90;999.90;;;;;;;7.86;100.00;95955.53;5047462;28;20249;-68
2021/10/14 03:00:35;;;;;;;1999.90;999.90;;;;;;;7.89;100.00;95955.00;5047049;28;20614;-69
2021/10/14 03:03:04;;;;;;;1999.90;999.90;;;;;;;7.93;100.00;95947.47;5047400;28;20262;-69
2021/10/14 03:05:31;;;;;;;1999.90;999.90;;;;;;;8.00;100.00;95958.31;5047127;28;20570;-69
2021/10/14 03:07:58;;;;;;;1999.90;999.90;;;;;;;7.99;100.00;95957.53;5047053;28;20201;-69
2021/10/14 03:10:25;;;;;;;1999.90;999.90;;;;;;;7.96;100.00;95958.06;5046953;28;20300;-69
2021/10/14 03:12:53;;;;;;;1999.90;999.90;;;;;;;7.82;100.00;95964.06;5047220;28;20236;-69
2021/10/14 03:15:20;;;;;;;1999.90;999.90;;;;;;;7.92;100.00;95962.22;5047005;28;20269;-69
2021/10/14 03:17:47;;;;;;;1999.90;999.90;;;;;;;7.85;100.00;95960.97;5046740;28;20595;-69
2021/10/14 03:20:15;;;;;;;1999.90;999.90;;;;;;;7.93;100.00;95973.34;5047110;28;20221;-69
2021/10/14 03:22:43;;;;;;;1999.90;999.90;;;;;;;7.94;100.00;95964.53;5046669;28;20588;-69
2021/10/14 03:25:10;;;;;;;1999.90;999.90;;;;;;;7.89;100.00;95967.94;5046824;28;20687;-69
2021/10/14 03:27:37;;;;;;;1999.90;999.90;;;;;;;7.92;100.00;95967.38;5046910;28;20201;-69
2021/10/14 03:30:05;;;;;;;1999.90;999.90;;;;;;;7.92;100.00;95969.97;5046559;28;20716;-69
2021/10/14 03:32:33;;;;;;;1999.90;999.90;;;;;;;7.88;100.00;95978.53;5046560;28;20197;-69
2021/10/14 03:35:00;;;;;;;1999.90;999.90;;;;;;;7.90;100.00;95973.88;5046224;28;20205;-69
2021/10/14 03:37:28;;;;;;;1999.90;999.90;;;;;;;7.86;100.00;95972.84;5046505;28;20201;-68
2021/10/14 03:39:55;;;;;;;1999.90;999.90;;;;;;;7.84;100.00;95970.53;5046965;28;20209;-69
2021/10/14 03:42:23;;;;;;;1999.90;999.90;;;;;;;7.93;100.00;95978.50;5046743;28;20274;-68
2021/10/14 03:44:50;;;;;;;1999.90;999.90;;;;;;;7.99;100.00;95972.28;5046487;28;20200;-68
2021/10/14 03:47:17;;;;;;;1999.90;999.90;;;;;;;7.99;100.00;95972.28;5046785;28;20223;-69
2021/10/14 03:49:44;;;;;;;1999.90;999.90;;;;;;;8.02;100.00;95971.78;5046652;28;20650;-68
2021/10/14 03:52:11;;;;;;;1999.90;999.90;;;;;;;8.07;100.00;95971.75;5046371;28;20225;-69
2021/10/14 03:54:40;;;;;;;1999.90;999.90;;;;;;;8.11;100.00;95975.34;5046721;28;20209;-69
2021/10/14 03:57:07;;;;;;;1999.90;999.90;;;;;;;8.09;100.00;95980.78;5046350;28;20204;-69
2021/10/14 03:59:34;;;;;;;1999.90;999.90;;;;;;;8.02;100.00;95974.38;5046446;28;20202;-69
2021/10/14 04:02:01;;;;;;;1999.90;999.90;;;;;;;8.00;100.00;95973.84;5046178;28;20232;-69
2021/10/14 04:04:28;;;;;;;1999.90;999.90;;;;;;;8.00;100.00;95974.63;5046359;28;20292;-69
2021/10/14 04:06:55;;;;;;;1999.90;999.90;;;;;;;8.02;100.00;95984.72;5048162;28;20202;-69
2021/10/14 04:09:22;;;;;;;1999.90;999.90;;;;;;;8.02;100.00;95987.31;5050081;28;20205;-69
2021/10/14 04:11:51;;;;;;;1999.90;999.90;;;;;;;8.07;100.00;95980.28;5049642;28;20830;-69
2021/10/14 04:14:18;;;;;;;1999.90;999.90;;;;;;;7.99;100.00;95982.63;5049674;28;20201;-69
2021/10/14 04:16:45;;;;;;;1999.90;999.90;;;;;;;7.96;100.00;95976.19;5049868;28;20227;-69
2021/10/14 04:19:12;;;;;;;1999.90;999.90;;;;;;;8.00;100.00;95974.63;5049949;28;20197;-69
2021/10/14 04:21:40;;;;;;;1999.90;999.90;;;;;;;8.06;100.00;95985.72;5049387;28;20701;-69
2021/10/14 04:24:07;;;;;;;1999.90;999.90;;;;;;;8.00;100.00;95979.78;5049471;28;20201;-68
2021/10/14 04:26:34;;;;;;;1999.90;999.90;;;;;;;7.97;100.00;95982.16;5049833;28;20580;-69
2021/10/14 04:29:03;;;;;;;1999.90;999.90;;;;;;;7.82;100.00;95980.34;5049504;28;20197;-68
2021/10/14 04:31:30;;;;;;;1999.90;999.90;;;;;;;7.88;100.00;95983.69;5049539;28;20211;-69
2021/10/14 04:33:58;;;;;;;1999.90;999.90;;;;;;;7.72;100.00;95983.75;5049246;28;20197;-68
2021/10/14 04:36:25;;;;;;;1999.90;999.90;;;;;;;7.70;100.00;95972.13;5049690;28;20426;-68
2021/10/14 04:38:53;;;;;;;1999.90;999.90;;;;;;;7.77;100.00;95981.16;5049667;28;20233;-68
2021/10/14 04:41:20;;;;;;;1999.90;999.90;;;;;;;7.64;100.00;95979.13;5049301;28;20236;-68
2021/10/14 04:43:47;;;;;;;1999.90;999.90;;;;;;;7.67;100.00;95981.16;5049784;28;20276;-69
2021/10/14 04:46:16;;;;;;;1999.90;999.90;;;;;;;7.65;100.00;95985.84;5049506;28;20200;-69
2021/10/14 04:48:43;;;;;;;1999.90;999.90;;;;;;;7.56;100.00;95989.22;5049303;28;20592;-69
2021/10/14 04:51:10;;;;;;;1999.90;999.90;;;;;;;7.46;100.00;95999.59;5049103;28;20200;-68
2021/10/14 04:53:37;;;;;;;1999.90;999.90;;;;;;;7.44;100.00;95996.47;5049035;28;20207;-69
2021/10/14 04:56:05;;;;;;;1999.90;999.90;;;;;;;7.63;100.00;96003.44;5049209;28;20229;-68
2021/10/14 04:58:32;;;;;;;1999.90;999.90;;;;;;;7.58;100.00;96000.84;5049083;28;20206;-68
2021/10/14 05:00:59;;;;;;;1999.90;999.90;;;;;;;7.53;100.00;96000.84;5049149;28;20232;-69
2021/10/14 05:03:28;;;;;;;1999.90;999.90;;;;;;;7.41;100.00;95999.59;5049287;28;20884;-68
2021/10/14 05:05:55;;;;;;;1999.90;999.90;;;;;;;7.46;100.00;95999.59;5049451;28;20201;-68
2021/10/14 05:08:22;;;;;;;1999.90;999.90;;;;;;;7.55;100.00;96005.78;5048780;28;20197;-68
2021/10/14 05:10:49;;;;;;;1999.90;999.90;;;;;;;7.62;100.00;96001.88;5049043;28;20190;-68
2021/10/14 05:13:16;;;;;;;1999.90;999.90;;;;;;;7.67;100.00;96007.03;5048677;28;20213;-69
2021/10/14 05:15:44;;;;;;;1999.90;999.90;;;;;;;7.55;100.00;96006.56;5049038;28;20201;-69
2021/10/14 05:18:11;;;;;;;1999.90;999.90;;;;;;;7.60;100.00;96009.13;5048484;28;20201;-69
2021/10/14 05:20:39;;;;;;;1999.90;999.90;;;;;;;7.55;100.00;96011.72;5048637;28;20197;-69
2021/10/14 05:23:06;;;;;;;1999.90;999.90;;;;;;;7.60;100.00;96016.88;5048619;28;20205;-69
2021/10/14 05:25:34;;;;;;;1999.90;999.90;;;;;;;7.68;100.00;96018.94;5049049;28;20276;-69
2021/10/14 05:28:01;;;;;;;1999.90;999.90;;;;;;;7.63;100.00;96015.56;5048609;28;20198;-68
2021/10/14 05:30:28;;;;;;;1999.90;999.90;;;;;;;7.64;100.00;96020.50;5048329;28;20252;-69
2021/10/14 05:32:55;;;;;;;1999.90;999.90;;;;;;;7.70;100.00;96019.47;5048415;28;20277;-68
2021/10/14 05:35:22;;;;;;;1999.90;999.90;;;;;;;7.74;100.00;96023.06;5048496;28;20246;-68
2021/10/14 05:37:51;;;;;;;1999.90;999.90;;;;;;;7.77;100.00;96025.13;5048477;28;20201;-68
2021/10/14 05:40:18;;;;;;;1999.90;999.90;;;;;;;7.78;100.00;96026.69;5048027;28;20229;-68
2021/10/14 05:42:45;;;;;;;1999.90;999.90;;;;;;;7.75;100.00;96029.81;5048243;28;20239;-69
2021/10/14 05:45:13;;;;;;;1999.90;999.90;;;;;;;7.61;100.00;96028.00;5048331;28;20201;-68
2021/10/14 05:47:41;;;;;;;1999.90;999.90;;;;;;;7.69;100.00;96037.81;5048597;28;20284;-68
2021/10/14 05:50:09;;;;;;;1999.90;999.90;;;;;;;7.76;100.00;96036.53;5048244;28;20201;-68
2021/10/14 05:52:36;;;;;;;1999.90;999.90;;;;;;;7.71;100.00;96028.78;5048054;28;20201;-68
2021/10/14 05:55:05;;;;;;;1999.90;999.90;;;;;;;7.78;100.00;96038.84;5048277;28;20205;-68
2021/10/14 05:57:32;;;;;;;1999.90;999.90;;;;;;;7.80;100.00;96041.94;5048044;28;20207;-68
2021/10/14 06:00:00;;;;;;;1999.90;999.90;;;;;;;7.81;100.00;96040.13;5048021;28;20194;-68
2021/10/14 06:02:27;;;;;;;1999.90;999.90;;;;;;;7.79;100.00;96040.41;5048236;28;20225;-68
2021/10/14 06:04:54;;;;;;;1999.90;999.90;;;;;;;7.89;100.00;96055.13;5047992;28;20193;-68
2021/10/14 06:07:22;;;;;;;1999.90;999.90;;;;;;;7.71;100.00;96053.88;5047836;28;20216;-68
2021/10/14 06:09:49;;;;;;;1999.90;999.90;;;;;;;7.71;100.00;96067.56;5047831;28;20254;-68
2021/10/14 06:12:18;;;;;;;1999.90;999.90;;;;;;;7.61;100.00;96072.75;5048275;28;20209;-69
2021/10/14 06:14:45;;;;;;;1999.90;999.90;;;;;;;7.52;100.00;96082.03;5047827;28;20197;-68
2021/10/14 06:17:12;;;;;;;1999.90;999.90;;;;;;;7.53;100.00;96075.84;5048012;28;20205;-69
2021/10/14 06:19:40;;;;;;;1999.90;999.90;;;;;;;7.48;100.00;96081.03;5048134;28;20576;-68
2021/10/14 06:22:07;;;;;;;1999.90;999.90;;;;;;;7.47;100.00;96079.47;5047569;28;20225;-68
2021/10/14 06:24:34;;;;;;;1999.90;999.90;;;;;;;7.45;100.00;96084.13;5047733;28;20581;-68
2021/10/14 06:27:01;;;;;;;1999.90;999.90;;;;;;;7.38;100.00;96093.94;5047508;28;20197;-68
2021/10/14 06:29:30;;;;;;;1999.90;999.90;;;;;;;7.41;100.00;96093.44;5046998;28;20239;-68
2021/10/14 06:31:57;;;;;;;1999.90;999.90;;;;;;;7.34;100.00;96100.66;5047559;28;20221;-68
2021/10/14 06:34:24;;;;;;;1999.90;999.90;;;;;;;7.33;100.00;96099.09;5047953;28;20197;-68
2021/10/14 06:36:51;;;;;;;1999.90;999.90;;;;;;;7.30;100.00;96097.06;5047637;27;20249;-69
2021/10/14 06:39:19;;;;;;;1999.90;999.90;;;;;;;7.34;100.00;96103.25;5047509;28;20212;-69
2021/10/14 06:41:46;;;;;;;1999.90;999.90;;;;;;;7.37;100.00;96104.56;5047287;28;20674;-69
2021/10/14 06:44:13;;;;;;;1999.90;999.90;;;;;;;7.30;100.00;96104.81;5047383;28;20210;-68
2021/10/14 06:46:42;;;;;;;1999.90;999.90;;;;;;;7.16;100.00;96108.91;5047672;28;20296;-69
2021/10/14 06:49:09;;;;;;;1999.90;999.90;;;;;;;7.12;100.00;96115.63;5047327;28;20197;-69
2021/10/14 06:51:36;;;;;;;1999.90;999.90;;;;;;;7.20;100.00;96115.13;5047218;28;20254;-68
2021/10/14 06:54:03;;;;;;;1999.90;999.90;;;;;;;7.13;100.00;96119.75;5047349;28;20212;-69
2021/10/14 06:56:30;;;;;;;1999.90;999.90;;;;;;;7.19;100.00;96114.34;5047780;28;20664;-68
2021/10/14 06:58:58;;;;;;;1999.90;999.90;;;;;;;7.24;100.00;96116.16;5047429;28;20204;-69
2021/10/14 07:01:25;;;;;;;1999.90;999.90;;;;;;;7.19;100.00;96126.50;5047159;28;20781;-68
2021/10/14 07:03:53;;;;;;;1999.90;999.90;;;;;;;7.16;100.00;96130.38;5047316;28;20295;-69
2021/10/14 07:06:20;;;;;;;1999.90;999.90;;;;;;;7.27;100.00;96120.84;5047344;28;20591;-68
2021/10/14 07:08:48;;;;;;;1999.90;999.90;;;;;;;7.22;100.00;96128.59;5047213;28;20216;-68
2021/10/14 07:11:15;;;;;;;1999.90;999.90;;;;;;;7.23;100.00;96127.53;5047503;28;20197;-68
2021/10/14 07:13:45;;;;;;;1999.90;999.90;;;;;;;7.14;100.00;96139.41;5046844;28;20254;-68
2021/10/14 07:16:12;;;;;;;1999.90;999.90;;;;;;;7.07;100.00;96137.06;5047389;28;20288;-68
2021/10/14 07:18:40;;;;;;;1999.90;999.90;;;;;;;7.14;100.00;96137.59;5046885;28;20249;-68
2021/10/14 07:21:10;;;;;;;1999.90;999.90;;;;;;;7.24;100.00;96137.63;5047014;28;20587;-68
2021/10/14 07:23:37;;;;;;;1999.90;999.90;;;;;;;7.09;100.00;96140.16;5046859;28;20258;-68
2021/10/14 07:26:05;;;;;;;1999.90;999.90;;;;;;;7.12;99.69;96137.09;5046979;28;20741;-68
2021/10/14 07:28:32;;;;;;;1999.90;999.90;;;;;;;7.07;97.87;96136.31;5047302;28;20548;-68
2021/10/14 07:30:59;;;;;;;1999.90;999.90;;;;;;;6.95;99.60;96130.56;5046656;28;20233;-68
2021/10/14 07:33:27;;;;;;;1999.90;999.90;;;;;;;6.77;99.39;96137.75;5046699;28;20470;-69
2021/10/14 07:35:54;;;;;;;1999.90;999.90;;;;;;;6.69;99.65;96134.88;5046996;28;20207;-69
2021/10/14 07:38:22;;;;;;;1999.90;999.90;;;;;;;6.67;99.81;96129.97;5046849;28;20201;-68
2021/10/14 07:40:50;;;;;;;1999.90;999.90;;;;;;;6.71;100.00;96127.66;5047068;28;20697;-68
2021/10/14 07:43:17;;;;;;;1999.90;999.90;;;;;;;6.57;100.00;96123.97;5050502;28;21042;-68
2021/10/14 07:45:45;;;;;;;1999.90;999.90;;;;;;;6.52;100.00;96124.75;5050620;28;20273;-68
2021/10/14 07:48:12;;;;;;;1999.90;999.90;;;;;;;6.51;100.00;96122.41;5050072;28;20197;-69
2021/10/14 07:50:39;;;;;;;1999.90;999.90;;;;;;;6.55;100.00;96126.81;5050315;28;20232;-68
2021/10/14 07:53:15;;;;;;;1999.90;999.90;;;;;;;6.63;100.00;96126.31;5050621;28;20205;-68
2021/10/14 07:55:44;;;;;;;1999.90;999.90;;;;;;;6.66;100.00;96131.00;5050576;28;20224;-68
2021/10/14 07:58:11;;;;;;;1999.90;999.90;;;;;;;6.65;100.00;96126.06;5050189;28;20237;-68
2021/10/14 08:00:40;;;;;;;1999.90;999.90;;;;;;;6.63;100.00;96136.66;5049841;28;20193;-68
2021/10/14 08:03:08;;;;;;;1999.90;999.90;;;;;;;6.63;100.00;96131.47;5050119;28;20282;-69
2021/10/14 08:05:35;;;;;;;1999.90;999.90;;;;;;;6.63;99.41;96133.28;5049943;28;20193;-68
2021/10/14 08:08:04;;;;;;;1999.90;999.90;;;;;;;6.67;100.00;96137.72;5049640;28;20236;-68
2021/10/14 08:10:32;;;;;;;1999.90;999.90;;;;;;;6.73;100.00;96134.09;5049822;28;20295;-68
2021/10/14 08:13:01;;;;;;;1999.90;999.90;;;;;;;6.85;100.00;96137.25;5049748;28;20193;-68
2021/10/14 08:15:28;;;;;;;1999.90;999.90;;;;;;;6.89;100.00;96130.56;5049653;28;20197;-68
2021/10/14 08:17:55;;;;;;;1999.90;999.90;;;;;;;6.90;100.00;96136.50;5049634;28;20223;-68
2021/10/14 08:20:23;;;;;;;1999.90;999.90;;;;;;;6.96;100.00;96140.66;5050062;28;20234;-68
2021/10/14 08:22:50;;;;;;;1999.90;999.90;;;;;;;6.87;100.00;96134.44;5049374;28;20225;-68
2021/10/14 08:25:17;;;;;;;1999.90;999.90;;;;;;;6.93;98.08;96136.75;5049599;28;20248;-68
2021/10/14 08:27:45;;;;;;;1999.90;999.90;;;;;;;6.95;96.69;96130.56;5049833;28;20296;-68
2021/10/14 08:30:14;;;;;;;1999.90;999.90;;;;;;;6.90;98.43;96133.91;5049389;28;20228;-68
2021/10/14 08:32:42;;;;;;;1999.90;999.90;;;;;;;6.89;99.50;96137.53;5049487;28;20333;-68
2021/10/14 08:35:11;;;;;;;1999.90;999.90;;;;;;;6.92;100.00;96124.88;5049245;28;20300;-69
2021/10/14 08:37:38;;;;;;;1999.90;999.90;;;;;;;7.02;100.00;96128.53;5049532;27;20273;-68
2021/10/14 08:40:07;;;;;;;1999.90;999.90;;;;;;;7.06;99.41;96134.75;5049483;28;20224;-68
2021/10/14 08:42:34;;;;;;;1999.90;999.90;;;;;;;6.90;96.15;96134.69;5049020;28;20236;-68
2021/10/14 08:45:05;;;;;;;1999.90;999.90;;;;;;;6.69;95.99;96134.88;5049465;28;20211;-68
2021/10/14 08:47:34;;;;;;;1999.90;999.90;;;;;;;6.64;97.86;96125.28;5049074;28;20193;-68
2021/10/14 08:50:02;;;;;;;1999.90;999.90;;;;;;;6.79;98.48;96125.34;5049052;28;20288;-67
2021/10/14 08:52:29;;;;;;;1999.90;999.90;;;;;;;6.75;99.35;96124.31;5048734;28;20216;-68
2021/10/14 08:54:57;;;;;;;1999.90;999.90;;;;;;;6.65;98.64;96126.06;5049000;28;20216;-68
2021/10/14 08:57:24;;;;;;;1999.90;999.90;;;;;;;6.71;98.16;96125.06;5048764;28;20205;-68
2021/10/14 08:59:52;;;;;;;1999.90;999.90;;;;;;;6.63;98.28;96120.38;5048923;28;20201;-68
2021/10/14 09:02:20;;;;;;;1999.90;999.90;;;;;;;6.54;98.41;96120.09;5049049;28;20227;-68
2021/10/14 09:05:03;;;;;;;1999.90;999.90;;;;;;;6.62;99.71;96122.19;5048732;28;20208;-68
2021/10/14 09:07:32;;;;;;;1999.90;999.90;;;;;;;6.73;100.00;96126.34;5049182;28;20213;-68
2021/10/14 09:10:02;;;;;;;1999.90;999.90;;;;;;;6.74;99.16;96122.75;5048893;28;20197;-68
2021/10/14 09:12:35;;;;;;;1999.90;999.90;;;;;;;6.70;97.22;96120.94;5048795;28;20181;-68
2021/10/14 09:15:05;;;;;;;1999.90;999.90;;;;;;;6.62;99.03;96122.19;5049014;28;20571;-68
2021/10/14 09:17:44;;;;;;;1999.90;999.90;;;;;;;6.63;98.00;96118.56;5048551;28;20665;-68
2021/10/14 09:20:36;;;;;;;1999.90;999.90;;;;;;;6.61;99.23;96123.22;5048689;28;20215;-68
2021/10/14 09:23:08;;;;;;;1999.90;999.90;;;;;;;6.63;98.94;96121.16;5048452;28;20224;-68
2021/10/14 09:25:38;;;;;;;1999.90;999.90;;;;;;;6.71;99.62;96117.31;5048599;28;20645;-67
2021/10/14 09:28:08;;;;;;;1999.90;999.90;;;;;;;6.69;99.78;96121.94;5048801;28;20189;-68
2021/10/14 09:30:47;;;;;;;1999.90;999.90;;;;;;;6.70;100.00;96113.97;5048500;28;20288;-68
2021/10/14 09:33:38;;;;;;;1999.90;999.90;;;;;;;6.81;100.00;96127.69;5048778;28;20207;-67
2021/10/14 09:36:15;;;;;;;1999.90;999.90;;;;;;;6.91;100.00;96128.50;5048624;28;20214;-67
2021/10/14 09:38:43;;;;;;;1999.90;999.90;;;;;;;7.06;100.00;96129.56;5048499;28;20558;-67
2021/10/14 09:41:12;;;;;;;1999.90;999.90;;;;;;;7.16;99.50;96132.19;5048502;28;20530;-67
2021/10/14 09:43:39;;;;;;;1999.90;999.90;;;;;;;7.15;98.05;96128.03;5048079;28;20221;-67
2021/10/14 09:46:06;;;;;;;1999.90;999.90;;;;;;;7.05;97.80;96133.97;5047967;28;20207;-68
2021/10/14 09:48:36;;;;;;;1999.90;999.90;;;;;;;7.08;98.09;96122.31;5047713;28;20205;-68
2021/10/14 09:51:03;;;;;;;1999.90;999.90;;;;;;;7.12;97.43;96128.56;5048375;28;20300;-67
2021/10/14 09:53:32;;;;;;;1999.90;999.90;;;;;;;7.03;97.41;96125.69;5047892;28;20734;-67
2021/10/14 09:55:59;;;;;;;1999.90;999.90;;;;;;;6.93;97.81;96123.06;5048296;28;20223;-67
2021/10/14 09:58:27;;;;;;;1999.90;999.90;;;;;;;6.90;97.04;96126.94;5047875;28;20912;-67
2021/10/14 10:00:54;;;;;;;1999.90;999.90;;;;;;;6.92;96.39;96130.03;5048248;28;20623;-67
2021/10/14 10:03:23;;;;;;;1999.90;999.90;;;;;;;6.95;97.31;96128.75;5047050;28;20700;-67
2021/10/14 10:05:53;;;;;;;1999.90;999.90;;;;;;;6.84;97.34;96127.94;5047575;28;20201;-67
2021/10/14 10:08:26;;;;;;;1999.90;999.90;;;;;;;6.91;98.21;96123.34;5048092;28;20216;-67
2021/10/14 10:10:58;;;;;;;1999.90;999.90;;;;;;;7.01;98.68;96132.91;5047833;28;20187;-68
2021/10/14 10:13:27;;;;;;;1999.90;999.90;;;;;;;6.95;99.46;96127.97;5047819;28;20217;-68
2021/10/14 10:15:54;;;;;;;1999.90;999.90;;;;;;;7.06;98.29;96129.56;5047717;28;20197;-67
2021/10/14 10:18:43;;;;;;;1999.90;999.90;;;;;;;7.13;97.92;96124.91;5047677;28;20196;-67
2021/10/14 10:21:39;;;;;;;1999.90;999.90;;;;;;;7.13;97.67;96123.13;5047691;28;20197;-67
2021/10/14 10:24:07;;;;;;;1999.90;999.90;;;;;;;7.15;95.60;96125.47;5047527;28;20260;-67
2021/10/14 10:26:54;;;;;;;1999.90;999.90;;;;;;;7.16;95.32;96116.69;5047738;28;20193;-67
2021/10/14 10:29:58;;;;;;;1999.90;999.90;;;;;;;7.22;94.59;96115.66;5047444;28;20186;-67
2021/10/14 10:32:26;;;;;;;1999.90;999.90;;;;;;;7.22;95.52;96111.25;5047685;28;20194;-67
2021/10/14 10:35:06;;;;;;;1999.90;999.90;;;;;;;7.15;94.09;96123.66;5047455;28;20193;-67
2021/10/14 10:37:49;;;;;;;1999.90;999.90;;;;;;;7.12;94.29;96113.84;5047626;28;20185;-67
2021/10/14 10:40:25;;;;;;;1999.90;999.90;;;;;;;6.95;92.69;96112.47;5047554;28;20189;-69
2021/10/14 10:43:03;;;;;;;1999.90;999.90;;;;;;;6.87;92.48;96106.78;5047417;28;20201;-68
2021/10/14 10:45:32;;;;;;;1999.90;999.90;;;;;;;6.81;93.80;96096.69;5047406;28;20185;-67
2021/10/14 10:48:02;;;;;;;1999.90;999.90;;;;;;;6.59;96.15;96089.13;5047301;28;20201;-68
2021/10/14 10:50:48;;;;;;;1999.90;999.90;;;;;;;6.73;96.87;96086.84;5047474;28;20195;-67
2021/10/14 10:53:18;;;;;;;1999.90;999.90;;;;;;;6.81;97.44;96081.97;5037001;28;21039;-66
2021/10/14 10:55:47;;;;;;;1999.90;999.90;;;;;;;6.78;95.80;96087.63;5047577;28;20257;-66
2021/10/14 10:58:37;;;;;;;1999.90;999.90;;;;;;;6.72;96.81;96086.09;5047571;28;20687;-67
2021/10/14 11:01:04;;;;;;;1999.90;999.90;;;;;;;6.74;96.90;96094.34;5047055;27;20214;-67
2021/10/14 11:03:33;;;;;;;1999.90;999.90;;;;;;;6.78;96.72;96095.38;5047463;28;20591;-67